首页
METAR-TAF:

METAR-TAF

机场 :

伊萨卡, 紐約州, 美国

纬度: 42-29N, 经度: 076-27W, 海拔: 335米

当前天气观测

该预报发布于49分钟前的20:56 UTC
风速7节,风向北转西北
温度 -3°C
湿度 68%
气压 1029 hPa
能見度: 16.1公里
多云层高于3100英尺

METAR: KITH 072056Z 33007KT 10SM BKN031 M03/M08 A3039 RMK AO2 SLP307 T10281078 53010

时间: 16:45 (21:45 UTC)

预报

该预报发布于4小时和8分钟前的17:37 UTC
预报有效从07日的 18点(UTC)到 08日的 18点(UTC)
风速8节,风向西转西北
能見度: 9.7公里
多云层高于2800英尺
小阵雪, 轻雾
从 07日的 2000点(UTC)
风速6节,风向西北
能見度: 10公里
散云层高于4000英尺
多云层高于5000英尺
从 08日的 0200点(UTC)
风速4节,风向多变
能見度: 10公里
少量云层高于15000英尺
散云层高于25000英尺
从 08日的 1500点(UTC)
风速12节,风向,有时为20节阵风
能見度: 10公里
散云层高于20000英尺

TAF: KITH 071737Z 0718/0818 30008KT 6SM -SHSN BR BKN028 FM072000 31006KT P6SM SCT040 BKN050 FM080200 VRB04KT P6SM FEW150 SCT250 FM081500 17012G20KT P6SM SCT200 WS020/21045KT

超过4000个机场的气象观测和天气预报(METAR&TAF报告)。

可查询的气象台以黄色和红色小点在地图上表示。

将鼠标移到小点上方,可查看气象台名称。

然后点击查看天气观测和预报。

如需切换地图:点击带黑十字的绿色按钮放大地图;点击带横线的绿色按钮缩小地图;或者点击绿色箭头查看邻近地区的地图。


METAR-TAF: